Time;durP1;ratioP1;P1;durP2;ratioP2;P2;SDS_P1;SDS_P2;PMS_P1;PMS_P2;Temp;Humidity;BMP_temperature;BMP_pressure;BME280_temperature;BME280_humidity;BME280_pressure;Samples;Min_cycle;Max_cycle;Signal;HPM_P1;HPM_P2
2021/10/31 00:02:07;;;;;;;17.35;13.95;;;9.30;97.80;;;;;;5035211;28;20274;-93
2021/10/31 00:07:15;;;;;;;18.52;14.30;;;9.30;97.50;;;;;;5025900;28;20209;-91
2021/10/31 00:09:43;;;;;;;16.77;14.05;;;9.20;97.70;;;;;;5021704;28;20227;-92
2021/10/31 00:12:12;;;;;;;18.42;15.23;;;9.20;97.70;;;;;;5012841;28;20198;-92
2021/10/31 00:14:39;;;;;;;22.45;15.93;;;9.10;97.80;;;;;;5030700;28;20202;-91
2021/10/31 00:17:06;;;;;;;18.17;15.02;;;9.10;97.90;;;;;;5009837;28;20206;-91
2021/10/31 00:19:34;;;;;;;19.50;15.25;;;9.00;97.80;;;;;;5003008;28;20207;-91
2021/10/31 00:22:01;;;;;;;18.70;14.95;;;9.00;97.90;;;;;;5019832;28;20205;-91
2021/10/31 00:24:28;;;;;;;21.63;16.08;;;8.90;97.70;;;;;;5039780;28;20293;-91
2021/10/31 00:26:56;;;;;;;19.92;15.57;;;8.80;98.10;;;;;;5033920;28;20207;-91
2021/10/31 00:29:24;;;;;;;23.10;15.48;;;8.70;98.30;;;;;;5033391;28;20207;-91
2021/10/31 00:31:51;;;;;;;19.90;15.25;;;8.70;98.30;;;;;;5037309;28;20700;-91
2021/10/31 00:34:19;;;;;;;19.55;15.73;;;8.70;98.50;;;;;;5036069;28;20229;-91
2021/10/31 00:36:46;;;;;;;18.15;15.07;;;8.70;98.50;;;;;;5031381;28;20321;-91
2021/10/31 00:39:13;;;;;;;20.75;15.75;;;8.80;98.30;;;;;;5032760;28;20202;-91
2021/10/31 00:41:40;;;;;;;20.92;15.82;;;8.70;98.20;;;;;;5032556;28;20294;-91
2021/10/31 00:44:08;;;;;;;20.35;16.08;;;8.70;98.40;;;;;;5034258;28;20714;-91
2021/10/31 00:46:37;;;;;;;19.30;15.15;;;8.70;98.20;;;;;;5033310;28;20229;-92
2021/10/31 00:51:46;;;;;;;18.15;14.63;;;8.80;97.90;;;;;;5028751;28;20690;-92
2021/10/31 00:54:14;;;;;;;22.05;15.65;;;8.70;97.80;;;;;;5028200;28;20196;-91
2021/10/31 00:56:42;;;;;;;19.45;15.32;;;8.70;97.90;;;;;;5034994;28;20249;-91
2021/10/31 00:59:09;;;;;;;20.30;15.27;;;8.70;97.80;;;;;;5033427;28;20723;-92
2021/10/31 01:01:38;;;;;;;21.13;15.90;;;8.70;97.90;;;;;;5036008;28;20241;-91
2021/10/31 01:04:05;;;;;;;20.10;15.20;;;8.60;97.80;;;;;;5032677;28;20540;-90
2021/10/31 01:07:12;;;;;;;18.58;14.80;;;8.60;97.70;;;;;;5038846;28;20242;-90
2021/10/31 01:09:50;;;;;;;19.73;15.38;;;8.40;98.00;;;;;;5037717;28;20206;-92
2021/10/31 01:12:34;;;;;;;19.42;15.25;;;8.30;98.40;;;;;;5035875;28;20257;-91
2021/10/31 01:15:16;;;;;;;19.95;15.15;;;8.30;98.70;;;;;;5025635;28;20233;-91
2021/10/31 01:18:00;;;;;;;17.27;14.10;;;8.30;98.40;;;;;;5039602;28;20305;-91
2021/10/31 01:20:41;;;;;;;17.83;14.30;;;8.30;98.40;;;;;;5037578;28;20236;-90
2021/10/31 01:23:30;;;;;;;16.27;13.70;;;8.30;98.60;;;;;;5035779;28;20206;-90
2021/10/31 01:26:17;;;;;;;19.20;13.65;;;8.30;98.70;;;;;;5027935;28;20257;-90
2021/10/31 01:29:21;;;;;;;18.08;13.68;;;8.30;98.70;;;;;;5030799;28;20203;-91
2021/10/31 01:32:00;;;;;;;18.55;14.32;;;8.40;98.40;;;;;;5030470;28;20568;-91
2021/10/31 01:34:59;;;;;;;19.58;13.18;;;8.40;98.40;;;;;;5033081;28;20226;-91
2021/10/31 01:37:53;;;;;;;15.43;12.45;;;8.30;98.10;;;;;;5032483;28;20630;-91
2021/10/31 01:40:28;;;;;;;16.48;12.68;;;8.40;98.40;;;;;;5036779;28;20228;-90
2021/10/31 01:43:06;;;;;;;15.00;13.30;;;8.30;98.00;;;;;;5035309;28;20269;-91
2021/10/31 01:48:26;;;;;;;15.63;12.13;;;8.30;98.20;;;;;;5035881;28;20215;-91
2021/10/31 01:50:59;;;;;;;15.15;12.38;;;8.40;98.20;;;;;;5036867;28;20229;-91
2021/10/31 01:53:52;;;;;;;14.48;11.63;;;8.40;98.10;;;;;;5028402;28;20195;-91
2021/10/31 01:56:21;;;;;;;15.65;11.95;;;8.50;98.10;;;;;;5036653;28;20257;-91
2021/10/31 01:59:01;;;;;;;13.52;12.07;;;8.50;98.00;;;;;;5037802;28;20222;-91
2021/10/31 02:01:32;;;;;;;14.45;11.77;;;8.40;98.00;;;;;;5018228;28;20219;-91
2021/10/31 02:04:03;;;;;;;14.95;11.60;;;8.40;98.00;;;;;;5031909;28;20195;-91
2021/10/31 02:06:32;;;;;;;16.08;12.10;;;8.20;98.00;;;;;;5033850;28;20819;-91
2021/10/31 02:09:01;;;;;;;13.65;11.20;;;8.00;98.40;;;;;;5043906;28;20202;-91
2021/10/31 02:11:29;;;;;;;13.07;11.05;;;8.00;99.00;;;;;;5045420;28;20222;-91
2021/10/31 02:14:00;;;;;;;15.68;11.38;;;8.10;98.80;;;;;;5046721;28;20305;-91
2021/10/31 02:16:28;;;;;;;13.65;11.00;;;8.10;98.50;;;;;;5043521;28;20245;-91
2021/10/31 02:19:02;;;;;;;15.68;11.48;;;8.10;98.30;;;;;;5037243;28;20214;-90
2021/10/31 02:24:15;;;;;;;13.10;10.77;;;7.80;98.70;;;;;;5035531;28;20277;-90
2021/10/31 02:26:42;;;;;;;12.55;10.70;;;7.80;99.10;;;;;;5036926;28;20230;-91
2021/10/31 02:29:09;;;;;;;15.65;10.70;;;7.90;99.00;;;;;;5036359;28;20195;-91
2021/10/31 02:31:38;;;;;;;15.52;11.05;;;7.90;98.70;;;;;;5036832;28;20222;-91
2021/10/31 02:34:06;;;;;;;15.75;11.13;;;7.80;98.60;;;;;;5038195;28;20635;-91
2021/10/31 02:36:34;;;;;;;12.65;10.45;;;7.60;98.80;;;;;;5019762;28;20222;-91
2021/10/31 02:39:02;;;;;;;13.35;10.52;;;7.70;99.30;;;;;;5037131;28;20256;-90
2021/10/31 02:41:31;;;;;;;13.73;10.07;;;7.70;99.00;;;;;;5037329;28;20625;-91
2021/10/31 02:43:59;;;;;;;13.50;10.77;;;7.80;98.70;;;;;;5030083;28;20203;-91
2021/10/31 02:46:29;;;;;;;15.52;10.18;;;7.70;98.50;;;;;;5033928;28;20230;-90
2021/10/31 02:48:56;;;;;;;13.77;9.77;;;7.60;98.80;;;;;;5031763;28;20713;-92
2021/10/31 02:51:34;;;;;;;14.43;10.40;;;7.60;98.90;;;;;;5035509;28;20233;-92
2021/10/31 02:59:48;;;;;;;11.52;9.00;;;7.60;98.50;;;;;;5033689;28;20218;-91
2021/10/31 03:02:16;;;;;;;10.18;8.57;;;7.60;98.60;;;;;;5029912;28;20264;-91
2021/10/31 03:04:46;;;;;;;12.33;9.17;;;7.70;98.70;;;;;;5031650;28;20752;-91
2021/10/31 03:07:15;;;;;;;11.63;8.75;;;7.60;98.50;;;;;;5016270;28;20194;-91
2021/10/31 03:09:46;;;;;;;11.02;8.13;;;7.50;98.70;;;;;;5039917;28;20208;-91
2021/10/31 03:14:56;;;;;;;11.33;8.40;;;7.60;98.50;;;;;;5026319;28;20232;-91
2021/10/31 03:17:23;;;;;;;10.50;8.67;;;7.60;98.20;;;;;;5024973;28;20199;-90
2021/10/31 03:19:50;;;;;;;11.98;8.43;;;7.60;98.10;;;;;;5031653;28;20226;-91
2021/10/31 03:22:17;;;;;;;10.57;8.10;;;7.50;97.90;;;;;;5029722;28;20220;-91
2021/10/31 03:24:44;;;;;;;9.73;8.13;;;7.50;98.20;;;;;;5024665;28;20313;-91
2021/10/31 03:27:11;;;;;;;9.35;7.88;;;7.60;97.80;;;;;;5029342;28;20212;-92
2021/10/31 03:29:44;;;;;;;9.70;8.02;;;7.50;97.70;;;;;;5028897;28;20563;-91
2021/10/31 03:32:15;;;;;;;9.57;7.53;;;7.30;97.90;;;;;;5029003;28;20218;-91
2021/10/31 03:34:42;;;;;;;8.90;7.73;;;7.30;98.20;;;;;;5025385;28;20209;-91
2021/10/31 03:37:09;;;;;;;10.03;7.87;;;7.30;97.90;;;;;;5030323;28;20202;-91
2021/10/31 03:39:36;;;;;;;9.73;7.60;;;7.20;97.90;;;;;;5024490;28;20206;-91
2021/10/31 03:42:05;;;;;;;10.57;7.95;;;7.10;98.30;;;;;;5029529;28;20689;-90
2021/10/31 03:44:35;;;;;;;9.13;7.88;;;7.20;98.30;;;;;;5027699;28;20294;-91
2021/10/31 03:47:07;;;;;;;8.55;7.07;;;7.30;98.20;;;;;;5033876;28;20206;-91
2021/10/31 03:49:35;;;;;;;9.23;7.23;;;7.20;98.00;;;;;;5032465;28;20198;-91
2021/10/31 03:52:02;;;;;;;9.20;7.17;;;7.20;98.10;;;;;;5032664;28;20304;-92
2021/10/31 03:54:29;;;;;;;9.40;7.77;;;7.30;97.90;;;;;;5032612;28;20202;-90
2021/10/31 03:56:56;;;;;;;8.60;7.07;;;7.30;97.70;;;;;;5034116;28;20264;-91
2021/10/31 03:59:22;;;;;;;8.60;7.10;;;7.20;97.90;;;;;;5031663;28;20198;-91
2021/10/31 04:01:50;;;;;;;8.40;6.57;;;7.20;97.80;;;;;;5032757;28;20234;-91
2021/10/31 04:04:18;;;;;;;7.50;6.37;;;7.20;97.80;;;;;;5024799;28;20209;-91
2021/10/31 04:06:45;;;;;;;7.43;6.40;;;7.10;97.90;;;;;;5032459;28;20253;-91
2021/10/31 04:09:12;;;;;;;9.13;7.00;;;7.10;97.70;;;;;;5027836;28;20198;-90
2021/10/31 04:11:39;;;;;;;7.47;6.40;;;7.10;97.40;;;;;;5036686;28;20229;-91
2021/10/31 04:14:06;;;;;;;7.67;6.70;;;7.10;97.30;;;;;;5034699;28;20313;-90
2021/10/31 04:16:33;;;;;;;8.83;6.53;;;7.00;97.30;;;;;;5032556;28;20218;-91
2021/10/31 04:19:00;;;;;;;7.30;5.90;;;6.90;97.20;;;;;;5025214;28;20210;-91
2021/10/31 04:21:28;;;;;;;6.87;6.17;;;6.90;97.50;;;;;;5025130;28;20229;-91
2021/10/31 04:23:55;;;;;;;9.17;6.70;;;6.90;97.20;;;;;;5034476;28;20692;-91
2021/10/31 04:26:22;;;;;;;7.80;5.93;;;6.80;97.10;;;;;;5032938;28;20219;-90
2021/10/31 04:28:49;;;;;;;7.23;6.00;;;6.80;97.50;;;;;;5036412;28;20212;-91
2021/10/31 04:31:16;;;;;;;7.70;6.27;;;6.80;97.40;;;;;;5031974;28;20268;-91
2021/10/31 04:33:43;;;;;;;6.67;5.60;;;6.70;97.50;;;;;;5031598;28;20198;-90
2021/10/31 04:36:11;;;;;;;6.80;5.37;;;6.70;97.70;;;;;;5032485;28;20226;-91
2021/10/31 04:38:41;;;;;;;7.13;5.10;;;6.70;97.30;;;;;;5032862;28;20228;-91
2021/10/31 04:41:09;;;;;;;6.47;5.20;;;6.80;97.10;;;;;;5026928;28;20233;-92
2021/10/31 04:43:36;;;;;;;6.80;5.10;;;6.70;97.10;;;;;;5030311;28;20206;-91
2021/10/31 04:46:03;;;;;;;5.97;4.77;;;6.60;97.20;;;;;;5032028;28;20229;-91
2021/10/31 04:48:31;;;;;;;6.63;4.90;;;6.60;97.40;;;;;;5032920;28;20206;-91
2021/10/31 04:50:58;;;;;;;6.30;4.80;;;6.50;97.50;;;;;;5033548;28;20237;-90
2021/10/31 04:53:25;;;;;;;8.93;4.87;;;6.60;97.30;;;;;;5032170;28;20203;-90
2021/10/31 04:55:53;;;;;;;5.10;4.60;;;6.50;97.30;;;;;;5030482;28;20234;-91
2021/10/31 04:58:20;;;;;;;8.50;4.87;;;6.40;97.30;;;;;;5030274;28;20206;-90
2021/10/31 05:00:47;;;;;;;7.10;4.97;;;6.40;97.60;;;;;;5032289;28;20225;-91
2021/10/31 05:03:14;;;;;;;5.20;4.70;;;6.40;97.60;;;;;;5033462;28;20202;-90
2021/10/31 05:05:40;;;;;;;5.50;4.57;;;6.50;97.30;;;;;;5030517;28;20827;-91
2021/10/31 05:08:08;;;;;;;5.93;5.10;;;6.60;97.10;;;;;;5030917;28;20228;-91
2021/10/31 05:10:35;;;;;;;5.30;4.60;;;6.50;96.90;;;;;;5029586;28;20223;-91
2021/10/31 05:13:03;;;;;;;4.83;4.17;;;6.40;97.20;;;;;;5028420;28;20670;-91
2021/10/31 05:15:30;;;;;;;6.60;4.70;;;6.40;97.30;;;;;;5031212;28;20226;-91
2021/10/31 05:17:57;;;;;;;4.90;4.10;;;6.40;97.30;;;;;;5025250;28;20209;-90
2021/10/31 05:20:24;;;;;;;5.77;4.20;;;6.40;97.20;;;;;;5029946;28;20289;-91
2021/10/31 05:22:51;;;;;;;5.67;4.50;;;6.40;97.10;;;;;;5031244;28;20218;-91
2021/10/31 05:25:18;;;;;;;5.47;4.10;;;6.30;97.20;;;;;;5032580;28;20230;-90
2021/10/31 05:27:45;;;;;;;4.80;3.93;;;6.40;97.10;;;;;;5030008;28;20587;-90
2021/10/31 05:30:15;;;;;;;4.90;4.03;;;6.30;97.00;;;;;;5023116;28;20231;-91
2021/10/31 05:32:43;;;;;;;5.00;4.50;;;6.30;97.30;;;;;;5031863;28;20264;-91
2021/10/31 05:35:12;;;;;;;8.80;4.40;;;6.20;97.20;;;;;;5025341;28;20318;-91
2021/10/31 05:37:41;;;;;;;5.70;3.83;;;6.10;97.40;;;;;;5014051;28;20214;-90
2021/10/31 05:40:11;;;;;;;4.03;3.60;;;6.10;97.70;;;;;;5012881;28;20250;-91
2021/10/31 05:42:38;;;;;;;3.97;3.57;;;6.20;97.50;;;;;;5027881;28;20210;-91
2021/10/31 05:45:07;;;;;;;4.90;3.60;;;6.30;97.20;;;;;;5029739;28;20634;-89
2021/10/31 05:47:37;;;;;;;4.13;3.70;;;6.30;97.00;;;;;;5034961;28;20252;-90
2021/10/31 05:50:06;;;;;;;5.20;3.83;;;6.30;97.00;;;;;;5015725;28;20222;-90
2021/10/31 05:52:33;;;;;;;6.03;3.53;;;6.20;97.10;;;;;;5032254;28;20309;-91
2021/10/31 05:55:01;;;;;;;4.73;3.60;;;6.10;97.40;;;;;;5035615;28;20783;-90
2021/10/31 05:57:29;;;;;;;4.97;3.83;;;6.10;97.40;;;;;;5035006;28;20313;-89
2021/10/31 05:59:56;;;;;;;3.90;3.47;;;6.10;97.60;;;;;;5013185;28;20241;-92
2021/10/31 06:02:23;;;;;;;4.10;3.50;;;6.20;97.50;;;;;;5010802;28;20206;-89
2021/10/31 06:04:52;;;;;;;3.90;3.20;;;6.30;97.30;;;;;;5027190;28;20228;-90
2021/10/31 06:07:21;;;;;;;5.77;3.80;;;6.30;97.00;;;;;;5025531;28;20210;-90
2021/10/31 06:09:48;;;;;;;3.60;3.30;;;6.30;97.10;;;;;;5026133;28;20223;-89
2021/10/31 06:12:15;;;;;;;4.17;3.60;;;6.20;97.20;;;;;;5016200;28;20234;-89
2021/10/31 06:14:43;;;;;;;5.07;3.60;;;6.30;97.10;;;;;;5038524;28;20203;-89
2021/10/31 06:17:10;;;;;;;4.43;3.30;;;6.30;97.20;;;;;;5030104;28;20209;-90
2021/10/31 06:19:37;;;;;;;4.43;3.80;;;6.30;97.00;;;;;;5019910;28;20194;-89
2021/10/31 06:22:09;;;;;;;4.30;3.70;;;6.30;96.90;;;;;;5009881;28;20729;-90
2021/10/31 06:24:37;;;;;;;5.27;3.63;;;6.30;96.90;;;;;;5025236;28;20911;-91
2021/10/31 06:27:04;;;;;;;4.90;3.80;;;6.30;97.00;;;;;;5029273;28;20213;-92
2021/10/31 06:29:32;;;;;;;5.10;4.03;;;6.30;97.00;;;;;;5023644;28;20211;-90
2021/10/31 06:32:01;;;;;;;4.17;3.47;;;6.40;96.80;;;;;;5027449;28;20218;-92
2021/10/31 06:34:28;;;;;;;3.83;3.17;;;6.40;96.80;;;;;;4991368;28;20209;-93
2021/10/31 06:36:55;;;;;;;3.67;2.97;;;6.50;96.70;;;;;;5015377;28;20203;-92
2021/10/31 06:39:24;;;;;;;4.03;3.63;;;6.60;96.60;;;;;;5024235;28;20305;-92
2021/10/31 06:41:51;;;;;;;4.80;3.57;;;6.50;96.60;;;;;;5019704;28;20314;-92
2021/10/31 06:44:20;;;;;;;5.30;4.37;;;6.50;96.80;;;;;;5001203;28;20671;-93
2021/10/31 06:46:47;;;;;;;3.77;3.30;;;6.40;97.00;;;;;;5011826;28;20233;-92
2021/10/31 06:49:37;;;;;;;4.53;3.60;;;6.50;97.10;;;;;;5021061;28;20207;-93
2021/10/31 06:52:05;;;;;;;3.87;3.30;;;6.50;97.10;;;;;;5005458;28;20305;-93
2021/10/31 06:57:17;;;;;;;4.07;3.60;;;6.80;96.90;;;;;;5027528;28;20677;-92
2021/10/31 07:02:25;;;;;;;4.10;3.33;;;6.90;96.50;;;;;;5004764;28;20192;-92
2021/10/31 07:05:10;;;;;;;3.83;3.40;;;7.00;96.60;;;;;;5020306;28;20255;-89
2021/10/31 07:07:37;;;;;;;3.37;2.93;;;7.00;96.50;;;;;;5036449;28;20206;-89
2021/10/31 07:10:20;;;;;;;4.20;3.20;;;7.10;96.60;;;;;;5020959;28;20230;-87
2021/10/31 07:12:47;;;;;;;3.90;3.50;;;7.20;96.30;;;;;;5016677;28;20591;-87
2021/10/31 07:15:14;;;;;;;3.57;3.20;;;7.20;96.40;;;;;;5020283;28;20677;-87
2021/10/31 07:17:42;;;;;;;3.90;3.10;;;7.30;96.30;;;;;;5019484;28;20303;-88
2021/10/31 07:20:13;;;;;;;4.03;3.30;;;7.40;96.40;;;;;;5027128;28;20240;-88
2021/10/31 07:23:21;;;;;;;3.92;3.30;;;7.40;96.50;;;;;;5029531;28;20614;-87
2021/10/31 07:25:50;;;;;;;4.20;3.53;;;7.40;96.60;;;;;;5028241;28;20605;-87
2021/10/31 07:28:22;;;;;;;5.07;3.30;;;7.60;96.70;;;;;;5043974;28;20301;-88
2021/10/31 07:30:49;;;;;;;7.07;3.75;;;7.70;96.60;;;;;;5043632;28;20300;-87
2021/10/31 07:33:16;;;;;;;4.07;3.50;;;7.80;96.10;;;;;;5040697;28;20246;-86
2021/10/31 07:35:44;;;;;;;4.18;3.58;;;7.90;95.90;;;;;;5026786;28;20298;-87
2021/10/31 07:38:12;;;;;;;5.00;3.75;;;8.10;96.10;;;;;;5019038;28;20646;-91
2021/10/31 07:41:05;;;;;;;4.18;3.50;;;8.20;95.70;;;;;;5008800;28;20581;-89
2021/10/31 07:43:32;;;;;;;3.78;3.10;;;8.30;95.80;;;;;;5041138;28;20205;-89
2021/10/31 07:49:27;;;;;;;5.20;3.55;;;8.40;95.80;;;;;;5043074;28;20633;-89
2021/10/31 07:51:55;;;;;;;3.92;3.45;;;8.50;95.80;;;;;;5042108;28;20275;-91
2021/10/31 07:54:25;;;;;;;3.65;3.10;;;8.70;95.80;;;;;;5023895;28;20305;-88
2021/10/31 07:56:57;;;;;;;4.85;3.45;;;8.80;95.00;;;;;;5040266;28;20203;-88
2021/10/31 07:59:24;;;;;;;4.88;3.53;;;8.90;94.90;;;;;;5045512;28;20191;-87
2021/10/31 08:01:51;;;;;;;3.90;3.50;;;9.10;94.50;;;;;;5034875;28;20314;-86
2021/10/31 08:04:29;;;;;;;4.15;3.50;;;9.30;93.20;;;;;;5029276;28;20286;-86
2021/10/31 09:00:26;;;;;;;3.30;3.00;;;20.70;26.20;;;;;;5197003;22;20221;-88
2021/10/31 09:02:53;;;;;;;3.38;2.80;;;22.30;22.20;;;;;;5017738;28;20202;-87
2021/10/31 09:05:20;;;;;;;2.78;2.53;;;23.50;19.70;;;;;;5020158;28;20693;-87
2021/10/31 09:07:48;;;;;;;3.08;2.78;;;22.70;19.50;;;;;;5036102;28;20208;-88
2021/10/31 09:10:15;;;;;;;4.22;2.70;;;23.50;19.90;;;;;;5023816;28;20228;-87
2021/10/31 09:12:43;;;;;;;2.72;2.38;;;24.50;18.40;;;;;;5023873;28;20215;-88
2021/10/31 09:15:19;;;;;;;2.90;2.58;;;25.40;16.70;;;;;;5007793;28;20315;-86
2021/10/31 09:18:11;;;;;;;2.65;2.45;;;25.50;14.40;;;;;;5013600;28;20202;-89
2021/10/31 09:21:15;;;;;;;3.00;2.65;;;23.60;17.00;;;;;;5015396;28;20278;-89
2021/10/31 09:23:42;;;;;;;3.10;2.78;;;25.20;14.70;;;;;;5013732;28;20274;-89
2021/10/31 09:26:11;;;;;;;3.08;2.80;;;25.80;14.50;;;;;;5010447;28;20288;-87
2021/10/31 09:29:12;;;;;;;2.65;2.45;;;26.40;15.70;;;;;;5007092;28;20202;-91
2021/10/31 09:31:39;;;;;;;3.03;2.42;;;25.40;14.40;;;;;;4992817;28;20235;-88
2021/10/31 09:34:06;;;;;;;2.60;2.40;;;26.30;14.80;;;;;;4994797;28;20510;-88
2021/10/31 09:36:35;;;;;;;2.40;2.20;;;25.40;14.30;;;;;;4999839;28;20238;-90
2021/10/31 09:39:04;;;;;;;2.67;2.38;;;24.90;14.20;;;;;;4998762;28;20195;-90
2021/10/31 09:41:53;;;;;;;2.38;2.17;;;24.80;14.10;;;;;;5008534;28;20218;-90
2021/10/31 09:44:22;;;;;;;3.15;2.30;;;24.50;13.90;;;;;;5024084;28;20571;-89
2021/10/31 09:47:05;;;;;;;2.65;2.45;;;25.40;14.30;;;;;;5012091;28;20303;-91
2021/10/31 09:49:31;;;;;;;2.67;2.15;;;24.70;14.00;;;;;;5012950;28;20210;-90
2021/10/31 09:52:00;;;;;;;2.75;2.55;;;24.30;14.90;;;;;;5002225;28;20219;-89
2021/10/31 09:54:28;;;;;;;3.35;2.53;;;23.50;15.90;;;;;;5005129;28;20253;-91
2021/10/31 09:56:55;;;;;;;2.72;2.10;;;23.90;16.40;;;;;;4998269;28;20222;-90
2021/10/31 09:59:25;;;;;;;2.40;2.20;;;23.90;14.90;;;;;;5007664;28;20207;-90
2021/10/31 10:07:35;;;;;;;2.63;2.42;;;22.20;17.20;;;;;;5002078;28;20215;-91
2021/10/31 10:10:03;;;;;;;2.65;2.45;;;22.50;16.40;;;;;;5010178;28;20240;-90
2021/10/31 10:12:30;;;;;;;3.10;2.85;;;22.20;17.60;;;;;;5000694;28;20226;-90
2021/10/31 10:15:07;;;;;;;2.58;2.38;;;22.50;17.30;;;;;;5001871;28;20292;-90
2021/10/31 10:17:45;;;;;;;3.15;2.40;;;21.90;18.30;;;;;;5002595;28;20314;-89
2021/10/31 10:20:15;;;;;;;2.40;2.20;;;22.40;17.20;;;;;;4994448;28;20220;-91
2021/10/31 10:22:45;;;;;;;2.60;2.40;;;22.20;16.90;;;;;;4999858;28;20567;-90
2021/10/31 10:25:20;;;;;;;2.40;2.20;;;22.50;16.30;;;;;;5008581;28;20253;-91
2021/10/31 10:27:51;;;;;;;5.20;4.10;;;23.10;15.30;;;;;;5014230;28;20569;-91
2021/10/31 10:30:21;;;;;;;5.93;5.43;;;23.20;16.20;;;;;;5002625;28;20272;-91
2021/10/31 10:32:50;;;;;;;3.40;2.97;;;23.60;14.90;;;;;;5006576;28;20237;-89
2021/10/31 10:35:18;;;;;;;3.42;3.13;;;23.30;14.00;;;;;;5001338;28;20265;-92
2021/10/31 10:37:46;;;;;;;2.33;2.03;;;22.50;16.10;;;;;;5032212;28;20229;-92
2021/10/31 10:43:04;;;;;;;3.70;3.40;;;21.30;17.70;;;;;;5026458;28;20684;-91
2021/10/31 10:45:40;;;;;;;3.78;3.47;;;22.30;17.40;;;;;;5013238;28;20300;-90
2021/10/31 10:48:08;;;;;;;2.60;2.40;;;22.80;17.00;;;;;;5001407;28;20803;-91
2021/10/31 10:50:36;;;;;;;2.42;2.20;;;23.50;15.00;;;;;;5008808;28;20236;-91
2021/10/31 10:56:15;;;;;;;2.90;2.60;;;22.60;16.40;;;;;;5005839;28;20343;-91
2021/10/31 10:58:51;;;;;;;4.68;2.33;;;21.80;18.00;;;;;;5005317;28;20227;-90
2021/10/31 11:04:30;;;;;;;2.63;2.30;;;20.40;19.80;;;;;;5007439;28;20520;-90
2021/10/31 11:06:57;;;;;;;3.88;2.28;;;19.60;21.50;;;;;;5009234;28;20221;-92
2021/10/31 11:09:25;;;;;;;2.53;2.15;;;19.00;21.80;;;;;;5009139;28;20285;-92
2021/10/31 11:17:53;;;;;;;1.95;1.83;;;18.90;23.00;;;;;;5074509;28;20213;-93
2021/10/31 11:20:35;;;;;;;2.65;2.25;;;18.90;22.40;;;;;;5084913;28;20227;-91
2021/10/31 11:23:04;;;;;;;3.90;3.33;;;19.10;21.70;;;;;;5089843;28;20205;-92
2021/10/31 11:25:34;;;;;;;3.03;2.72;;;19.20;21.60;;;;;;5089948;28;21546;-93
2021/10/31 11:28:04;;;;;;;2.55;2.35;;;19.10;23.50;;;;;;5092019;28;20197;-93
2021/10/31 11:30:33;;;;;;;2.53;2.15;;;19.20;22.20;;;;;;5091965;28;20228;-92
2021/10/31 11:33:02;;;;;;;2.60;2.25;;;19.00;22.10;;;;;;5089556;28;20208;-91
2021/10/31 11:35:29;;;;;;;2.60;2.28;;;19.10;21.60;;;;;;5096695;28;20231;-91
2021/10/31 11:38:00;;;;;;;3.53;2.28;;;18.70;22.70;;;;;;5097608;28;20209;-91
2021/10/31 11:40:30;;;;;;;2.75;2.50;;;18.70;22.80;;;;;;5091209;28;20307;-92
2021/10/31 11:43:00;;;;;;;2.60;2.30;;;18.80;23.00;;;;;;5079015;28;20216;-92
2021/10/31 11:45:33;;;;;;;3.55;2.42;;;18.60;23.80;;;;;;5092464;28;20740;-89
2021/10/31 11:48:13;;;;;;;2.72;2.30;;;18.60;23.60;;;;;;5091882;28;20211;-92
2021/10/31 11:54:10;;;;;;;3.13;2.55;;;18.40;23.80;;;;;;5084833;28;20284;-93
2021/10/31 11:56:39;;;;;;;2.90;2.28;;;18.40;23.00;;;;;;5083451;28;20216;-93
2021/10/31 12:01:55;;;;;;;2.40;2.20;;;18.60;22.40;;;;;;5088142;28;20224;-92
2021/10/31 12:07:43;;;;;;;2.75;2.45;;;18.70;21.60;;;;;;5074270;28;20213;-93
2021/10/31 12:10:26;;;;;;;2.75;2.33;;;18.50;21.90;;;;;;5070554;28;20218;-93
2021/10/31 12:13:18;;;;;;;2.95;2.22;;;18.40;21.70;;;;;;5073065;28;20750;-92
2021/10/31 12:16:09;;;;;;;2.60;2.20;;;18.40;22.50;;;;;;5063333;28;20313;-91
2021/10/31 12:18:44;;;;;;;3.30;2.58;;;18.40;22.60;;;;;;5066868;28;20280;-91
2021/10/31 12:21:19;;;;;;;2.83;2.30;;;18.50;23.20;;;;;;5069153;28;20225;-91
2021/10/31 12:23:54;;;;;;;3.03;2.40;;;18.60;23.00;;;;;;5059669;28;20193;-91
2021/10/31 12:26:23;;;;;;;2.85;2.40;;;18.60;22.70;;;;;;5064082;28;20601;-91
2021/10/31 12:28:50;;;;;;;2.42;2.22;;;18.50;23.30;;;;;;5065286;28;20285;-91
2021/10/31 12:31:28;;;;;;;2.10;1.90;;;18.60;22.80;;;;;;5065233;28;20239;-91
2021/10/31 12:34:16;;;;;;;3.38;2.20;;;18.60;22.90;;;;;;5070878;28;20307;-91
2021/10/31 12:36:47;;;;;;;2.35;1.90;;;18.60;22.50;;;;;;5070149;28;20225;-92
2021/10/31 12:40:00;;;;;;;4.70;2.03;;;18.50;23.60;;;;;;5067938;28;20280;-92
2021/10/31 12:42:29;;;;;;;3.65;2.78;;;18.40;23.50;;;;;;5072549;28;20221;-91
2021/10/31 12:45:00;;;;;;;2.95;2.20;;;18.30;23.90;;;;;;5065509;28;20256;-91
2021/10/31 12:47:39;;;;;;;4.57;3.40;;;18.30;23.70;;;;;;5097727;28;20232;-91
2021/10/31 12:50:12;;;;;;;3.20;2.10;;;18.30;24.80;;;;;;5097090;28;20310;-93
2021/10/31 12:52:43;;;;;;;2.88;2.10;;;18.10;24.60;;;;;;5094503;28;20196;-92
2021/10/31 12:55:13;;;;;;;2.33;2.13;;;18.20;24.60;;;;;;5092355;28;20236;-89
2021/10/31 12:57:49;;;;;;;3.30;2.83;;;18.10;24.80;;;;;;5095364;28;20202;-92
2021/10/31 13:00:17;;;;;;;3.08;2.30;;;17.90;25.80;;;;;;5083421;28;20589;-93
2021/10/31 13:02:52;;;;;;;3.20;2.00;;;17.90;25.70;;;;;;5085043;28;20276;-92
2021/10/31 13:05:24;;;;;;;2.63;2.03;;;18.00;25.40;;;;;;5083077;28;20773;-92
2021/10/31 13:07:53;;;;;;;2.53;2.30;;;18.10;25.40;;;;;;5085998;28;20276;-92
2021/10/31 13:10:23;;;;;;;2.65;2.42;;;18.10;25.30;;;;;;5079539;28;20594;-91
2021/10/31 13:12:59;;;;;;;8.73;2.92;;;18.00;26.00;;;;;;5088610;28;20716;-92
2021/10/31 13:18:46;;;;;;;2.55;2.35;;;17.90;26.20;;;;;;5045817;28;20668;-92
2021/10/31 13:24:15;;;;;;;3.00;2.40;;;18.00;26.90;;;;;;5086963;28;20209;-92
2021/10/31 13:27:08;;;;;;;2.53;2.00;;;18.00;25.20;;;;;;5086831;28;20232;-92
2021/10/31 13:29:54;;;;;;;2.90;2.40;;;18.00;25.20;;;;;;5082986;28;20238;-92
2021/10/31 13:32:47;;;;;;;3.25;2.28;;;18.00;25.50;;;;;;5091550;28;20209;-92
2021/10/31 13:44:30;;;;;;;2.20;2.00;;;18.00;27.10;;;;;;5089120;28;20208;-93
2021/10/31 13:47:20;;;;;;;2.72;2.00;;;18.10;26.80;;;;;;5088114;28;20772;-93
2021/10/31 13:53:05;;;;;;;2.30;2.10;;;18.10;26.80;;;;;;5061661;28;20266;-92
2021/10/31 13:58:17;;;;;;;2.78;2.50;;;18.10;27.60;;;;;;5077201;28;20281;-92
2021/10/31 14:00:50;;;;;;;4.50;2.63;;;18.00;27.90;;;;;;5082359;28;20292;-91
2021/10/31 14:03:23;;;;;;;2.38;2.15;;;18.00;27.70;;;;;;5089616;28;20304;-92
2021/10/31 14:06:20;;;;;;;;;;;;;;;;;;;;;
2021/10/31 14:08:51;;;;;;;3.70;2.45;;;18.00;27.60;;;;;;5089255;28;20314;-92
2021/10/31 14:11:23;;;;;;;2.75;2.30;;;17.90;28.10;;;;;;5079404;28;20222;-92
2021/10/31 14:13:52;;;;;;;5.93;4.50;;;17.80;28.90;;;;;;5086325;28;20240;-92
2021/10/31 14:16:24;;;;;;;3.13;2.50;;;17.70;29.70;;;;;;5086756;28;20307;-92
2021/10/31 14:18:51;;;;;;;3.38;2.25;;;17.70;29.10;;;;;;5086341;28;20586;-92
2021/10/31 14:21:28;;;;;;;2.80;2.53;;;17.70;29.30;;;;;;5075931;28;20299;-91
2021/10/31 14:27:26;;;;;;;3.33;2.88;;;17.80;29.30;;;;;;5079108;28;20199;-92
2021/10/31 14:33:09;;;;;;;2.70;2.50;;;17.50;30.00;;;;;;5082181;28;20259;-93
2021/10/31 14:44:11;;;;;;;3.22;2.97;;;17.20;30.10;;;;;;5081152;28;20619;-93
2021/10/31 14:46:46;;;;;;;40.55;34.30;;;17.30;30.30;;;;;;5066073;28;20227;-94
2021/10/31 14:49:24;;;;;;;3.72;3.35;;;17.20;34.80;;;;;;5084864;28;20192;-94
2021/10/31 14:54:49;;;;;;;4.38;3.65;;;17.00;32.70;;;;;;5080587;28;20593;-93
2021/10/31 14:57:41;;;;;;;3.83;3.03;;;16.90;33.10;;;;;;5088891;28;20223;-93
2021/10/31 15:00:26;;;;;;;3.88;3.30;;;16.80;33.40;;;;;;5093259;28;20217;-93
2021/10/31 15:02:58;;;;;;;3.80;2.88;;;16.70;33.90;;;;;;5098356;28;20539;-93
2021/10/31 15:05:29;;;;;;;3.65;2.90;;;16.70;33.40;;;;;;5085410;28;20244;-93
2021/10/31 15:07:56;;;;;;;4.03;2.70;;;16.60;33.30;;;;;;5087797;28;20195;-92
2021/10/31 15:10:39;;;;;;;2.85;2.65;;;16.60;33.00;;;;;;5113000;28;20229;-92
2021/10/31 15:15:49;;;;;;;21.08;18.42;;;16.60;34.20;;;;;;5039358;28;20229;-94
2021/10/31 15:22:13;;;;;;;15.60;10.77;;;16.40;35.20;;;;;;5074507;28;20232;-92
2021/10/31 15:34:26;;;;;;;19.77;15.32;;;15.90;50.00;;;;;;5063590;28;20251;-94
2021/10/31 15:37:31;;;;;;;22.27;18.95;;;15.70;47.20;;;;;;5003158;28;20200;-93
2021/10/31 15:40:00;;;;;;;17.27;14.10;;;15.70;55.20;;;;;;5091729;28;20247;-94
2021/10/31 15:42:41;;;;;;;14.27;8.93;;;15.70;54.50;;;;;;5106670;28;20652;-95
2021/10/31 15:45:11;;;;;;;17.08;14.25;;;15.50;51.90;;;;;;5111832;28;20195;-94
2021/10/31 15:50:43;;;;;;;8.10;6.30;;;15.60;62.70;;;;;;5091720;28;20302;-94
2021/10/31 15:53:27;;;;;;;15.20;10.10;;;15.70;57.40;;;;;;5100833;28;20193;-94
2021/10/31 15:56:02;;;;;;;42.22;14.77;;;15.60;61.00;;;;;;5094144;28;20600;-93
2021/10/31 16:01:13;;;;;;;47.22;16.50;;;15.40;57.70;;;;;;5078332;28;20221;-94
2021/10/31 17:07:29;;;;;;;7.70;5.85;;;13.90;76.50;;;;;;5587847;23;20245;-93
2021/10/31 17:10:07;;;;;;;9.02;6.80;;;13.90;78.40;;;;;;4960864;28;20232;-92